Time,TemperatureF,DewpointF,PressureIn,WindDirection,WindDirectionDegrees,WindSpeedMPH,WindSpeedGustMPH,Humidity,HourlyPrecipIn,Conditions,Clouds,dailyrainin,SoftwareType,DateUTC
2013-04-18 00:00:00,51.5,35.0,30.32,WNW,283,0.0,0.0,53,0.00,,,0.00,weatherlink.com 1.10,2013-04-18 04:00:00,
2013-04-18 00:15:00,51.8,34.0,30.32,WNW,283,0.0,0.0,52,0.00,,,0.00,weatherlink.com 1.10,2013-04-18 04:15:00,
2013-04-18 00:30:00,51.2,36.0,30.32,WNW,284,0.0,0.0,56,0.00,,,0.00,weatherlink.com 1.10,2013-04-18 04:30:00,
2013-04-18 00:45:00,50.0,34.0,30.33,WNW,283,0.0,0.0,55,0.00,,,0.00,weatherlink.com 1.10,2013-04-18 04:45:00,
2013-04-18 01:00:00,51.0,35.0,30.33,WNW,284,0.0,0.0,54,0.00,,,0.00,weatherlink.com 1.10,2013-04-18 05:00:00,
2013-04-18 01:16:00,50.0,35.0,30.33,WNW,284,0.0,0.0,57,0.00,,,0.00,weatherlink.com 1.10,2013-04-18 05:16:00,
2013-04-18 01:31:00,49.9,37.0,30.32,WNW,284,0.0,0.0,61,0.00,,,0.00,weatherlink.com 1.10,2013-04-18 05:31:00,
2013-04-18 01:46:00,50.0,36.0,30.32,WNW,284,0.0,0.0,58,0.00,,,0.00,weatherlink.com 1.10,2013-04-18 05:46:00,
2013-04-18 02:01:00,50.1,36.0,30.31,WNW,284,0.0,0.0,58,0.00,,,0.00,weatherlink.com 1.10,2013-04-18 06:01:00,
2013-04-18 02:16:00,49.8,36.0,30.30,WNW,284,0.0,0.0,60,0.00,,,0.00,weatherlink.com 1.10,2013-04-18 06:16:00,
2013-04-18 02:31:00,49.9,35.0,30.31,NNW,345,0.0,0.0,56,0.00,,,0.00,weatherlink.com 1.10,2013-04-18 06:31:00,
2013-04-18 02:46:00,49.9,36.0,30.32,NNW,345,0.0,0.0,59,0.00,,,0.00,weatherlink.com 1.10,2013-04-18 06:46:00,
2013-04-18 03:01:00,50.2,34.0,30.33,NNW,345,0.0,0.0,55,0.00,,,0.00,weatherlink.com 1.10,2013-04-18 07:01:00,
2013-04-18 03:16:00,49.4,36.0,30.33,NNW,342,0.0,0.0,60,0.00,,,0.00,weatherlink.com 1.10,2013-04-18 07:16:00,
2013-04-18 03:46:00,48.5,36.0,30.33,NNW,346,1.0,2.0,63,0.00,,,0.00,weatherlink.com 1.10,2013-04-18 07:46:00,
2013-04-18 04:01:00,48.3,37.0,30.34,North,356,0.0,1.0,65,0.00,,,0.00,weatherlink.com 1.10,2013-04-18 08:01:00,
2013-04-18 04:16:00,47.4,37.0,30.34,North,356,0.0,0.0,68,0.00,,,0.00,weatherlink.com 1.10,2013-04-18 08:16:00,
2013-04-18 04:31:00,46.4,37.0,30.34,North,356,0.0,0.0,71,0.00,,,0.00,weatherlink.com 1.10,2013-04-18 08:31:00,
2013-04-18 04:46:00,46.1,38.0,30.34,North,356,0.0,1.0,74,0.00,,,0.00,weatherlink.com 1.10,2013-04-18 08:46:00,
2013-04-18 05:01:00,46.2,39.0,30.34,NNW,345,0.0,1.0,76,0.00,,,0.00,weatherlink.com 1.10,2013-04-18 09:01:00,
2013-04-18 05:16:00,46.0,40.0,30.34,NNW,331,0.0,0.0,79,0.00,,,0.00,weatherlink.com 1.10,2013-04-18 09:16:00,
2013-04-18 05:31:00,45.9,40.0,30.33,North,8,0.0,1.0,81,0.00,,,0.00,weatherlink.com 1.10,2013-04-18 09:31:00,
2013-04-18 05:46:00,45.5,41.0,30.34,WNW,297,0.0,1.0,83,0.00,,,0.00,weatherlink.com 1.10,2013-04-18 09:46:00,
2013-04-18 06:01:00,45.3,41.0,30.34,NNW,341,0.0,1.0,86,0.00,,,0.00,weatherlink.com 1.10,2013-04-18 10:01:00,
2013-04-18 06:16:00,45.4,41.0,30.35,NNW,341,0.0,1.0,85,0.00,,,0.00,weatherlink.com 1.10,2013-04-18 10:16:00,
2013-04-18 06:31:00,45.1,42.0,30.36,NNW,341,0.0,0.0,87,0.00,,,0.00,weatherlink.com 1.10,2013-04-18 10:31:00,
2013-04-18 06:47:00,45.4,42.0,30.36,NNW,342,0.0,0.0,86,0.00,,,0.00,weatherlink.com 1.10,2013-04-18 10:47:00,
2013-04-18 07:01:00,46.3,43.0,30.37,NNW,341,0.0,0.0,87,0.00,,,0.00,weatherlink.com 1.10,2013-04-18 11:01:00,
2013-04-18 07:16:00,47.9,43.0,30.37,NNW,330,1.0,2.0,84,0.00,,,0.00,weatherlink.com 1.10,2013-04-18 11:16:00,
2013-04-18 07:31:00,48.5,44.0,30.37,North,353,0.0,2.0,83,0.00,,,0.00,weatherlink.com 1.10,2013-04-18 11:31:00,
2013-04-18 07:46:00,49.0,44.0,30.36,NNE,25,1.0,2.0,82,0.00,,,0.00,weatherlink.com 1.10,2013-04-18 11:46:00,
2013-04-18 08:01:00,49.4,44.0,30.36,NW,325,1.0,3.0,80,0.00,,,0.00,weatherlink.com 1.10,2013-04-18 12:01:00,
2013-04-18 08:16:00,50.9,43.0,30.36,NE,53,2.0,3.0,75,0.00,,,0.00,weatherlink.com 1.10,2013-04-18 12:16:00,
2013-04-18 08:31:00,51.8,42.0,30.36,ENE,67,2.0,4.0,70,0.00,,,0.00,weatherlink.com 1.10,2013-04-18 12:31:00,
2013-04-18 08:46:00,53.3,43.0,30.36,NNE,33,4.0,5.0,67,0.00,,,0.00,weatherlink.com 1.10,2013-04-18 12:46:00,
2013-04-18 09:02:00,53.8,41.0,30.36,ENE,68,3.0,4.0,62,0.00,,,0.00,weatherlink.com 1.10,2013-04-18 13:02:00,
2013-04-18 09:17:00,54.5,41.0,30.36,NE,43,4.0,7.0,60,0.00,,,0.00,weatherlink.com 1.10,2013-04-18 13:17:00,
2013-04-18 09:32:00,54.9,41.0,30.36,NE,39,4.0,6.0,59,0.00,,,0.00,weatherlink.com 1.10,2013-04-18 13:32:00,
2013-04-18 09:47:00,54.9,41.0,30.37,NNE,33,2.0,6.0,59,0.00,,,0.00,weatherlink.com 1.10,2013-04-18 13:47:00,
2013-04-18 10:02:00,55.2,41.0,30.37,ENE,68,2.0,5.0,59,0.00,,,0.00,weatherlink.com 1.10,2013-04-18 14:02:00,
2013-04-18 10:17:00,55.8,40.0,30.37,East,96,1.0,6.0,56,0.00,,,0.00,weatherlink.com 1.10,2013-04-18 14:17:00,
2013-04-18 10:32:00,56.3,41.0,30.37,East,82,4.0,5.0,56,0.00,,,0.00,weatherlink.com 1.10,2013-04-18 14:32:00,
2013-04-18 10:47:00,57.0,39.0,30.37,ENE,68,1.0,7.0,52,0.00,,,0.00,weatherlink.com 1.10,2013-04-18 14:47:00,
2013-04-18 11:02:00,58.0,38.0,30.37,NNE,23,7.0,9.0,48,0.00,,,0.00,weatherlink.com 1.10,2013-04-18 15:02:00,
2013-04-18 11:17:00,58.5,39.0,30.36,ENE,70,5.0,11.0,49,0.00,,,0.00,weatherlink.com 1.10,2013-04-18 15:17:00,
2013-04-18 11:32:00,58.8,39.0,30.37,East,101,4.0,10.0,49,0.00,,,0.00,weatherlink.com 1.10,2013-04-18 15:32:00,
2013-04-18 12:02:00,58.3,38.0,30.36,NE,41,5.0,9.0,48,0.00,,,0.00,weatherlink.com 1.10,2013-04-18 16:02:00,
2013-04-18 12:17:00,58.4,40.0,30.34,East,95,6.0,9.0,50,0.00,,,0.00,weatherlink.com 1.10,2013-04-18 16:17:00,
2013-04-18 12:32:00,59.3,37.0,30.34,East,94,3.0,12.0,44,0.00,,,0.00,weatherlink.com 1.10,2013-04-18 16:32:00,
2013-04-18 12:47:00,59.3,37.0,30.34,SSE,150,3.0,9.0,43,0.00,,,0.00,weatherlink.com 1.10,2013-04-18 16:47:00,
2013-04-18 13:02:00,58.8,36.0,30.33,NNE,27,9.0,12.0,42,0.00,,,0.00,weatherlink.com 1.10,2013-04-18 17:02:00,
2013-04-18 13:17:00,58.4,35.0,30.34,East,94,6.0,10.0,42,0.00,,,0.00,weatherlink.com 1.10,2013-04-18 17:17:00,
2013-04-18 13:32:00,58.0,35.0,30.32,NE,39,1.0,10.0,43,0.00,,,0.00,weatherlink.com 1.10,2013-04-18 17:32:00,
2013-04-18 13:47:00,58.0,36.0,30.32,NNE,19,3.0,12.0,44,0.00,,,0.00,weatherlink.com 1.10,2013-04-18 17:47:00,
2013-04-18 14:02:00,57.1,37.0,30.32,NE,39,5.0,11.0,47,0.00,,,0.00,weatherlink.com 1.10,2013-04-18 18:02:00,
2013-04-18 14:17:00,57.1,39.0,30.32,ENE,65,3.0,9.0,52,0.00,,,0.00,weatherlink.com 1.10,2013-04-18 18:17:00,
2013-04-18 14:32:00,57.2,41.0,30.31,NE,44,2.0,9.0,55,0.00,,,0.00,weatherlink.com 1.10,2013-04-18 18:32:00,
2013-04-18 14:47:00,57.0,42.0,30.30,ENE,77,2.0,7.0,57,0.00,,,0.00,weatherlink.com 1.10,2013-04-18 18:47:00,
2013-04-18 15:02:00,56.8,42.0,30.30,East,92,5.0,9.0,59,0.00,,,0.00,weatherlink.com 1.10,2013-04-18 19:02:00,
2013-04-18 15:17:00,56.2,43.0,30.30,NNE,15,2.0,9.0,62,0.00,,,0.00,weatherlink.com 1.10,2013-04-18 19:17:00,
2013-04-18 15:32:00,56.3,44.0,30.29,ENE,63,0.0,6.0,63,0.00,,,0.00,weatherlink.com 1.10,2013-04-18 19:32:00,
2013-04-18 15:47:00,56.2,44.0,30.29,SSE,150,2.0,7.0,65,0.00,,,0.00,weatherlink.com 1.10,2013-04-18 19:47:00,
2013-04-18 16:02:00,55.4,45.0,30.28,ENE,71,1.0,10.0,69,0.00,,,0.00,weatherlink.com 1.10,2013-04-18 20:02:00,
2013-04-18 16:17:00,54.6,46.0,30.27,ENE,58,2.0,6.0,73,0.00,,,0.00,weatherlink.com 1.10,2013-04-18 20:17:00,
2013-04-18 16:32:00,54.1,47.0,30.26,SE,125,4.0,8.0,77,0.00,,,0.00,weatherlink.com 1.10,2013-04-18 20:32:00,
2013-04-18 16:47:00,54.0,47.0,30.26,ESE,103,4.0,6.0,77,0.00,,,0.00,weatherlink.com 1.10,2013-04-18 20:47:00,
2013-04-18 17:02:00,53.6,47.0,30.27,ENE,72,1.0,8.0,79,0.00,,,0.00,weatherlink.com 1.10,2013-04-18 21:02:00,
2013-04-18 17:17:00,53.6,47.0,30.26,NNE,14,1.0,5.0,79,0.00,,,0.00,weatherlink.com 1.10,2013-04-18 21:17:00,
2013-04-18 17:32:00,52.9,48.0,30.26,NE,37,1.0,3.0,83,0.00,,,0.00,weatherlink.com 1.10,2013-04-18 21:32:00,
2013-04-18 17:47:00,52.6,47.0,30.25,SE,135,2.0,5.0,82,0.00,,,0.00,weatherlink.com 1.10,2013-04-18 21:47:00,
2013-04-18 18:02:00,52.8,47.0,30.25,East,95,1.0,4.0,82,0.00,,,0.00,weatherlink.com 1.10,2013-04-18 22:02:00,
2013-04-18 18:17:00,52.6,48.0,30.24,NE,48,1.0,6.0,83,0.00,,,0.00,weatherlink.com 1.10,2013-04-18 22:17:00,
2013-04-18 18:32:00,52.5,48.0,30.24,NNE,29,1.0,4.0,84,0.00,,,0.00,weatherlink.com 1.10,2013-04-18 22:32:00,
2013-04-18 18:47:00,52.5,48.0,30.23,NE,46,0.0,1.0,85,0.00,,,0.00,weatherlink.com 1.10,2013-04-18 22:47:00,
2013-04-18 19:02:00,52.6,48.0,30.23,ENE,70,0.0,4.0,84,0.00,,,0.00,weatherlink.com 1.10,2013-04-18 23:02:00,
2013-04-18 19:17:00,52.7,48.0,30.23,NE,44,2.0,5.0,83,0.00,,,0.00,weatherlink.com 1.10,2013-04-18 23:17:00,
2013-04-18 19:32:00,52.7,48.0,30.23,ENE,60,4.0,4.0,84,0.00,,,0.00,weatherlink.com 1.10,2013-04-18 23:32:00,
2013-04-18 19:47:00,52.6,48.0,30.23,East,83,2.0,6.0,84,0.00,,,0.00,weatherlink.com 1.10,2013-04-18 23:47:00,
2013-04-18 20:03:00,52.5,49.0,30.22,ENE,68,4.0,4.0,86,0.00,,,0.00,weatherlink.com 1.10,2013-04-19 00:03:00,
2013-04-18 20:18:00,52.4,48.0,30.21,East,79,1.0,4.0,86,0.00,,,0.00,weatherlink.com 1.10,2013-04-19 00:18:00,
2013-04-18 20:33:00,52.3,48.0,30.21,ESE,111,2.0,3.0,86,0.00,,,0.00,weatherlink.com 1.10,2013-04-19 00:33:00,
2013-04-18 20:48:00,52.3,49.0,30.20,NE,55,1.0,4.0,87,0.00,,,0.00,weatherlink.com 1.10,2013-04-19 00:48:00,
2013-04-18 21:03:00,52.3,49.0,30.20,NE,55,1.0,3.0,87,0.00,,,0.00,weatherlink.com 1.10,2013-04-19 01:03:00,
2013-04-18 21:18:00,52.3,49.0,30.19,NE,43,1.0,2.0,87,0.00,,,0.00,weatherlink.com 1.10,2013-04-19 01:18:00,
2013-04-18 21:33:00,52.5,49.0,30.19,NE,46,1.0,3.0,87,0.00,,,0.00,weatherlink.com 1.10,2013-04-19 01:33:00,
2013-04-18 21:48:00,52.6,49.0,30.18,ENE,65,1.0,2.0,87,0.00,,,0.00,weatherlink.com 1.10,2013-04-19 01:48:00,
2013-04-18 22:03:00,52.8,49.0,30.18,ESE,120,0.0,2.0,88,0.00,,,0.00,weatherlink.com 1.10,2013-04-19 02:03:00,
2013-04-18 22:18:00,53.1,50.0,30.17,East,82,0.0,3.0,88,0.00,,,0.00,weatherlink.com 1.10,2013-04-19 02:18:00,
2013-04-18 22:33:00,53.3,50.0,30.16,NNE,29,2.0,2.0,89,0.00,,,0.00,weatherlink.com 1.10,2013-04-19 02:33:00,
2013-04-18 22:48:00,53.4,51.0,30.16,ESE,122,0.0,3.0,90,0.00,,,0.00,weatherlink.com 1.10,2013-04-19 02:48:00,
2013-04-18 23:03:00,53.6,51.0,30.15,NE,54,1.0,3.0,90,0.00,,,0.00,weatherlink.com 1.10,2013-04-19 03:03:00,
2013-04-18 23:18:00,53.7,51.0,30.15,ESE,106,0.0,2.0,91,0.00,,,0.00,weatherlink.com 1.10,2013-04-19 03:18:00,
2013-04-18 23:33:00,53.8,52.0,30.14,ESE,121,0.0,3.0,92,0.00,,,0.00,weatherlink.com 1.10,2013-04-19 03:33:00,
2013-04-18 23:48:00,53.9,52.0,30.14,East,96,0.0,1.0,92,0.00,,,0.00,weatherlink.com 1.10,2013-04-19 03:48:00,